sensor_id;sensor_type;location;lat;lon;timestamp;P1;durP1;ratioP1;P2;durP2;ratioP2
22289;SDS011;11313;50.116;8.424;2023-10-09T00:03:05;6.15;;;3.90;;
22289;SDS011;11313;50.116;8.424;2023-10-09T00:05:37;6.33;;;3.67;;
22289;SDS011;11313;50.116;8.424;2023-10-09T00:08:44;6.15;;;3.85;;
22289;SDS011;11313;50.116;8.424;2023-10-09T00:11:34;6.78;;;3.65;;
22289;SDS011;11313;50.116;8.424;2023-10-09T00:27:15;5.50;;;3.50;;
22289;SDS011;11313;50.116;8.424;2023-10-09T00:30:04;7.07;;;3.80;;
22289;SDS011;11313;50.116;8.424;2023-10-09T00:33:08;5.97;;;3.85;;
22289;SDS011;11313;50.116;8.424;2023-10-09T00:35:50;5.28;;;3.42;;
22289;SDS011;11313;50.116;8.424;2023-10-09T00:41:53;5.18;;;3.80;;
22289;SDS011;11313;50.116;8.424;2023-10-09T00:52:01;5.45;;;3.40;;
22289;SDS011;11313;50.116;8.424;2023-10-09T00:55:04;4.85;;;3.25;;
22289;SDS011;11313;50.116;8.424;2023-10-09T01:01:38;5.85;;;3.42;;
22289;SDS011;11313;50.116;8.424;2023-10-09T01:05:02;4.85;;;3.17;;
22289;SDS011;11313;50.116;8.424;2023-10-09T01:24:46;4.32;;;3.03;;
22289;SDS011;11313;50.116;8.424;2023-10-09T03:45:14;2.80;;;2.30;;
22289;SDS011;11313;50.116;8.424;2023-10-09T05:02:57;2.20;;;2.00;;
22289;SDS011;11313;50.116;8.424;2023-10-09T05:06:06;5.25;;;2.20;;
22289;SDS011;11313;50.116;8.424;2023-10-09T05:08:57;2.97;;;2.00;;
22289;SDS011;11313;50.116;8.424;2023-10-09T05:11:33;2.13;;;1.80;;
22289;SDS011;11313;50.116;8.424;2023-10-09T05:14:00;2.95;;;2.10;;
22289;SDS011;11313;50.116;8.424;2023-10-09T05:16:38;2.92;;;1.80;;
22289;SDS011;11313;50.116;8.424;2023-10-09T05:19:25;2.80;;;1.90;;
22289;SDS011;11313;50.116;8.424;2023-10-09T05:22:19;3.90;;;2.08;;
22289;SDS011;11313;50.116;8.424;2023-10-09T05:24:55;3.70;;;1.75;;
22289;SDS011;11313;50.116;8.424;2023-10-09T05:27:22;2.70;;;2.03;;
22289;SDS011;11313;50.116;8.424;2023-10-09T05:30:06;4.70;;;2.20;;
22289;SDS011;11313;50.116;8.424;2023-10-09T05:32:50;3.63;;;1.70;;
22289;SDS011;11313;50.116;8.424;2023-10-09T05:37:54;2.10;;;1.90;;
22289;SDS011;11313;50.116;8.424;2023-10-09T05:40:26;2.00;;;1.80;;
22289;SDS011;11313;50.116;8.424;2023-10-09T05:42:56;5.15;;;2.10;;
22289;SDS011;11313;50.116;8.424;2023-10-09T05:45:27;2.80;;;1.92;;
22289;SDS011;11313;50.116;8.424;2023-10-09T05:48:11;3.35;;;2.03;;
22289;SDS011;11313;50.116;8.424;2023-10-09T05:50:42;5.85;;;2.30;;
22289;SDS011;11313;50.116;8.424;2023-10-09T05:53:27;2.78;;;2.05;;
22289;SDS011;11313;50.116;8.424;2023-10-09T05:56:11;3.47;;;2.20;;
22289;SDS011;11313;50.116;8.424;2023-10-09T05:58:55;4.25;;;2.10;;
22289;SDS011;11313;50.116;8.424;2023-10-09T06:01:40;5.05;;;1.95;;
22289;SDS011;11313;50.116;8.424;2023-10-09T06:04:24;2.22;;;1.90;;
22289;SDS011;11313;50.116;8.424;2023-10-09T06:07:14;6.15;;;1.70;;
22289;SDS011;11313;50.116;8.424;2023-10-09T06:09:47;3.65;;;1.80;;
22289;SDS011;11313;50.116;8.424;2023-10-09T06:12:17;5.68;;;1.80;;
22289;SDS011;11313;50.116;8.424;2023-10-09T06:15:14;4.35;;;1.90;;
22289;SDS011;11313;50.116;8.424;2023-10-09T06:18:02;2.55;;;1.83;;
22289;SDS011;11313;50.116;8.424;2023-10-09T06:20:48;4.72;;;1.90;;
22289;SDS011;11313;50.116;8.424;2023-10-09T06:23:33;2.15;;;1.73;;
22289;SDS011;11313;50.116;8.424;2023-10-09T06:26:17;6.60;;;2.00;;
22289;SDS011;11313;50.116;8.424;2023-10-09T06:28:49;3.20;;;1.92;;
22289;SDS011;11313;50.116;8.424;2023-10-09T06:31:35;4.03;;;1.80;;
22289;SDS011;11313;50.116;8.424;2023-10-09T06:34:19;9.00;;;3.00;;
22289;SDS011;11313;50.116;8.424;2023-10-09T06:36:47;6.47;;;3.20;;
22289;SDS011;11313;50.116;8.424;2023-10-09T06:39:18;5.95;;;3.22;;
22289;SDS011;11313;50.116;8.424;2023-10-09T06:42:02;8.10;;;3.40;;
22289;SDS011;11313;50.116;8.424;2023-10-09T06:44:34;9.60;;;3.33;;
22289;SDS011;11313;50.116;8.424;2023-10-09T06:47:18;16.55;;;3.50;;
22289;SDS011;11313;50.116;8.424;2023-10-09T06:49:43;8.18;;;3.35;;
22289;SDS011;11313;50.116;8.424;2023-10-09T06:52:29;13.10;;;3.63;;
22289;SDS011;11313;50.116;8.424;2023-10-09T06:55:14;10.15;;;3.67;;
22289;SDS011;11313;50.116;8.424;2023-10-09T06:57:44;17.42;;;3.85;;
22289;SDS011;11313;50.116;8.424;2023-10-09T07:00:14;15.38;;;3.50;;
22289;SDS011;11313;50.116;8.424;2023-10-09T07:02:59;14.02;;;3.85;;
22289;SDS011;11313;50.116;8.424;2023-10-09T07:05:36;15.80;;;3.53;;
22289;SDS011;11313;50.116;8.424;2023-10-09T07:08:22;9.43;;;3.60;;
22289;SDS011;11313;50.116;8.424;2023-10-09T07:10:57;10.68;;;3.85;;
22289;SDS011;11313;50.116;8.424;2023-10-09T07:13:44;11.35;;;3.80;;
22289;SDS011;11313;50.116;8.424;2023-10-09T07:16:19;9.63;;;3.95;;
22289;SDS011;11313;50.116;8.424;2023-10-09T07:19:03;9.77;;;3.90;;
22289;SDS011;11313;50.116;8.424;2023-10-09T07:21:35;11.13;;;3.83;;
22289;SDS011;11313;50.116;8.424;2023-10-09T07:24:04;7.75;;;3.70;;
22289;SDS011;11313;50.116;8.424;2023-10-09T07:26:40;13.73;;;3.80;;
22289;SDS011;11313;50.116;8.424;2023-10-09T07:29:12;12.10;;;4.00;;
22289;SDS011;11313;50.116;8.424;2023-10-09T07:31:41;8.43;;;3.85;;
22289;SDS011;11313;50.116;8.424;2023-10-09T07:34:10;10.52;;;3.85;;
22289;SDS011;11313;50.116;8.424;2023-10-09T07:36:56;11.95;;;3.88;;
22289;SDS011;11313;50.116;8.424;2023-10-09T07:39:22;6.25;;;3.58;;
22289;SDS011;11313;50.116;8.424;2023-10-09T07:41:47;11.02;;;3.78;;
22289;SDS011;11313;50.116;8.424;2023-10-09T07:44:40;8.70;;;3.97;;
22289;SDS011;11313;50.116;8.424;2023-10-09T07:47:17;12.32;;;4.13;;
22289;SDS011;11313;50.116;8.424;2023-10-09T07:50:09;6.90;;;3.60;;
22289;SDS011;11313;50.116;8.424;2023-10-09T07:52:36;12.38;;;4.50;;
22289;SDS011;11313;50.116;8.424;2023-10-09T07:55:08;11.75;;;4.50;;
22289;SDS011;11313;50.116;8.424;2023-10-09T07:57:51;10.93;;;4.28;;
22289;SDS011;11313;50.116;8.424;2023-10-09T08:00:17;13.38;;;4.03;;
22289;SDS011;11313;50.116;8.424;2023-10-09T08:03:01;7.85;;;3.58;;
22289;SDS011;11313;50.116;8.424;2023-10-09T08:05:47;11.20;;;4.10;;
22289;SDS011;11313;50.116;8.424;2023-10-09T08:08:13;10.55;;;3.92;;
22289;SDS011;11313;50.116;8.424;2023-10-09T08:11:07;10.20;;;4.07;;
22289;SDS011;11313;50.116;8.424;2023-10-09T08:13:51;10.73;;;4.05;;
22289;SDS011;11313;50.116;8.424;2023-10-09T08:16:25;11.68;;;3.97;;
22289;SDS011;11313;50.116;8.424;2023-10-09T08:19:01;11.85;;;3.80;;
22289;SDS011;11313;50.116;8.424;2023-10-09T08:21:48;10.60;;;4.03;;
22289;SDS011;11313;50.116;8.424;2023-10-09T08:24:42;14.95;;;4.00;;
22289;SDS011;11313;50.116;8.424;2023-10-09T08:27:09;6.57;;;3.40;;
22289;SDS011;11313;50.116;8.424;2023-10-09T08:29:53;10.23;;;3.83;;
22289;SDS011;11313;50.116;8.424;2023-10-09T08:32:38;12.18;;;3.70;;
22289;SDS011;11313;50.116;8.424;2023-10-09T08:35:05;8.85;;;3.33;;
22289;SDS011;11313;50.116;8.424;2023-10-09T08:37:51;14.43;;;3.35;;
22289;SDS011;11313;50.116;8.424;2023-10-09T08:40:18;9.05;;;3.95;;
22289;SDS011;11313;50.116;8.424;2023-10-09T08:42:52;6.35;;;3.33;;
22289;SDS011;11313;50.116;8.424;2023-10-09T08:45:22;9.07;;;3.95;;
22289;SDS011;11313;50.116;8.424;2023-10-09T08:47:55;7.22;;;3.50;;
22289;SDS011;11313;50.116;8.424;2023-10-09T08:50:22;11.38;;;4.00;;
22289;SDS011;11313;50.116;8.424;2023-10-09T08:52:53;17.00;;;4.18;;
22289;SDS011;11313;50.116;8.424;2023-10-09T08:55:20;17.08;;;4.28;;
22289;SDS011;11313;50.116;8.424;2023-10-09T08:57:45;10.40;;;3.80;;
22289;SDS011;11313;50.116;8.424;2023-10-09T09:00:18;11.30;;;3.72;;
22289;SDS011;11313;50.116;8.424;2023-10-09T09:02:49;11.50;;;3.85;;
22289;SDS011;11313;50.116;8.424;2023-10-09T09:05:21;12.60;;;4.10;;
22289;SDS011;11313;50.116;8.424;2023-10-09T09:07:48;11.77;;;3.55;;
22289;SDS011;11313;50.116;8.424;2023-10-09T09:10:14;10.13;;;3.95;;
22289;SDS011;11313;50.116;8.424;2023-10-09T09:12:43;12.10;;;4.28;;
22289;SDS011;11313;50.116;8.424;2023-10-09T09:15:13;11.35;;;3.90;;
22289;SDS011;11313;50.116;8.424;2023-10-09T09:17:47;11.00;;;4.03;;
22289;SDS011;11313;50.116;8.424;2023-10-09T09:20:24;10.68;;;3.80;;
22289;SDS011;11313;50.116;8.424;2023-10-09T09:23:01;11.38;;;3.92;;
22289;SDS011;11313;50.116;8.424;2023-10-09T09:28:09;13.65;;;4.07;;
22289;SDS011;11313;50.116;8.424;2023-10-09T09:30:37;11.45;;;3.63;;
22289;SDS011;11313;50.116;8.424;2023-10-09T09:33:22;10.20;;;3.75;;
22289;SDS011;11313;50.116;8.424;2023-10-09T09:36:09;11.15;;;4.03;;
22289;SDS011;11313;50.116;8.424;2023-10-09T09:38:37;13.07;;;4.07;;
22289;SDS011;11313;50.116;8.424;2023-10-09T09:41:16;13.75;;;4.15;;
22289;SDS011;11313;50.116;8.424;2023-10-09T09:43:52;10.00;;;4.32;;
22289;SDS011;11313;50.116;8.424;2023-10-09T09:46:22;11.50;;;4.28;;
22289;SDS011;11313;50.116;8.424;2023-10-09T09:48:57;9.70;;;4.72;;
22289;SDS011;11313;50.116;8.424;2023-10-09T09:51:30;10.48;;;4.60;;
22289;SDS011;11313;50.116;8.424;2023-10-09T09:53:57;9.38;;;4.32;;
22289;SDS011;11313;50.116;8.424;2023-10-09T09:56:25;14.88;;;5.20;;
22289;SDS011;11313;50.116;8.424;2023-10-09T09:58:53;12.98;;;5.53;;
22289;SDS011;11313;50.116;8.424;2023-10-09T10:01:25;17.25;;;5.68;;
22289;SDS011;11313;50.116;8.424;2023-10-09T10:04:01;11.80;;;5.63;;
22289;SDS011;11313;50.116;8.424;2023-10-09T10:06:37;11.77;;;4.95;;
22289;SDS011;11313;50.116;8.424;2023-10-09T10:09:06;14.95;;;5.40;;
22289;SDS011;11313;50.116;8.424;2023-10-09T10:11:45;10.35;;;5.07;;
22289;SDS011;11313;50.116;8.424;2023-10-09T10:14:13;14.93;;;5.00;;
22289;SDS011;11313;50.116;8.424;2023-10-09T10:17:03;12.88;;;4.93;;
22289;SDS011;11313;50.116;8.424;2023-10-09T10:20:00;11.18;;;4.75;;
22289;SDS011;11313;50.116;8.424;2023-10-09T10:25:31;10.45;;;5.22;;
22289;SDS011;11313;50.116;8.424;2023-10-09T10:28:24;14.88;;;5.70;;
22289;SDS011;11313;50.116;8.424;2023-10-09T10:31:07;11.77;;;5.20;;
22289;SDS011;11313;50.116;8.424;2023-10-09T10:36:21;12.20;;;5.07;;
22289;SDS011;11313;50.116;8.424;2023-10-09T10:39:10;10.20;;;5.10;;
22289;SDS011;11313;50.116;8.424;2023-10-09T10:41:36;13.40;;;5.68;;
22289;SDS011;11313;50.116;8.424;2023-10-09T10:44:16;9.68;;;4.80;;
22289;SDS011;11313;50.116;8.424;2023-10-09T10:47:07;11.27;;;4.78;;
22289;SDS011;11313;50.116;8.424;2023-10-09T10:49:57;9.48;;;4.75;;
22289;SDS011;11313;50.116;8.424;2023-10-09T10:52:24;12.13;;;4.70;;
22289;SDS011;11313;50.116;8.424;2023-10-09T10:55:15;15.90;;;5.25;;
22289;SDS011;11313;50.116;8.424;2023-10-09T10:57:56;11.13;;;5.20;;
22289;SDS011;11313;50.116;8.424;2023-10-09T11:00:26;8.40;;;4.40;;
22289;SDS011;11313;50.116;8.424;2023-10-09T11:03:16;11.93;;;4.55;;
22289;SDS011;11313;50.116;8.424;2023-10-09T11:05:54;9.93;;;4.88;;
22289;SDS011;11313;50.116;8.424;2023-10-09T11:08:37;10.30;;;4.57;;
22289;SDS011;11313;50.116;8.424;2023-10-09T11:11:15;13.27;;;4.68;;
22289;SDS011;11313;50.116;8.424;2023-10-09T11:13:41;11.98;;;4.38;;
22289;SDS011;11313;50.116;8.424;2023-10-09T11:16:26;9.80;;;4.47;;
22289;SDS011;11313;50.116;8.424;2023-10-09T11:19:06;12.18;;;5.00;;
22289;SDS011;11313;50.116;8.424;2023-10-09T11:21:54;9.13;;;4.30;;
22289;SDS011;11313;50.116;8.424;2023-10-09T11:24:33;9.02;;;4.63;;
22289;SDS011;11313;50.116;8.424;2023-10-09T11:27:02;10.40;;;4.13;;
22289;SDS011;11313;50.116;8.424;2023-10-09T11:29:40;12.13;;;4.55;;
22289;SDS011;11313;50.116;8.424;2023-10-09T11:32:20;11.02;;;4.18;;
22289;SDS011;11313;50.116;8.424;2023-10-09T11:37:56;12.30;;;4.38;;
22289;SDS011;11313;50.116;8.424;2023-10-09T11:40:32;12.27;;;4.38;;
22289;SDS011;11313;50.116;8.424;2023-10-09T11:43:27;10.57;;;4.47;;
22289;SDS011;11313;50.116;8.424;2023-10-09T11:46:16;8.65;;;4.28;;
22289;SDS011;11313;50.116;8.424;2023-10-09T11:51:46;8.52;;;3.97;;
22289;SDS011;11313;50.116;8.424;2023-10-09T11:57:42;11.02;;;4.35;;
22289;SDS011;11313;50.116;8.424;2023-10-09T12:00:09;9.93;;;4.40;;
22289;SDS011;11313;50.116;8.424;2023-10-09T12:02:53;9.60;;;4.40;;
22289;SDS011;11313;50.116;8.424;2023-10-09T12:05:18;8.63;;;4.10;;
22289;SDS011;11313;50.116;8.424;2023-10-09T12:07:47;10.43;;;3.90;;
22289;SDS011;11313;50.116;8.424;2023-10-09T12:10:19;8.35;;;4.13;;
22289;SDS011;11313;50.116;8.424;2023-10-09T12:12:51;11.18;;;4.20;;
22289;SDS011;11313;50.116;8.424;2023-10-09T12:15:17;9.13;;;4.00;;
22289;SDS011;11313;50.116;8.424;2023-10-09T12:17:44;11.45;;;4.13;;
22289;SDS011;11313;50.116;8.424;2023-10-09T12:20:12;13.65;;;4.03;;
22289;SDS011;11313;50.116;8.424;2023-10-09T12:22:39;10.63;;;3.70;;
22289;SDS011;11313;50.116;8.424;2023-10-09T12:25:05;8.63;;;3.90;;
22289;SDS011;11313;50.116;8.424;2023-10-09T12:27:34;8.05;;;3.83;;
22289;SDS011;11313;50.116;8.424;2023-10-09T12:29:59;8.82;;;3.92;;
22289;SDS011;11313;50.116;8.424;2023-10-09T12:32:28;13.15;;;3.83;;
22289;SDS011;11313;50.116;8.424;2023-10-09T12:34:53;6.70;;;3.78;;
22289;SDS011;11313;50.116;8.424;2023-10-09T12:37:21;9.27;;;4.10;;
22289;SDS011;11313;50.116;8.424;2023-10-09T12:39:46;6.50;;;3.80;;
22289;SDS011;11313;50.116;8.424;2023-10-09T12:42:12;10.25;;;4.30;;
22289;SDS011;11313;50.116;8.424;2023-10-09T12:44:38;10.65;;;3.80;;
22289;SDS011;11313;50.116;8.424;2023-10-09T12:47:07;10.10;;;4.13;;
22289;SDS011;11313;50.116;8.424;2023-10-09T12:49:36;8.10;;;3.65;;
22289;SDS011;11313;50.116;8.424;2023-10-09T12:52:06;9.50;;;3.83;;
22289;SDS011;11313;50.116;8.424;2023-10-09T12:54:40;9.18;;;3.65;;
22289;SDS011;11313;50.116;8.424;2023-10-09T12:57:15;9.00;;;3.60;;
22289;SDS011;11313;50.116;8.424;2023-10-09T13:03:14;7.38;;;3.58;;
22289;SDS011;11313;50.116;8.424;2023-10-09T13:08:51;7.50;;;3.42;;
22289;SDS011;11313;50.116;8.424;2023-10-09T13:19:58;7.00;;;3.58;;
22289;SDS011;11313;50.116;8.424;2023-10-09T13:32:20;7.63;;;3.47;;
22289;SDS011;11313;50.116;8.424;2023-10-09T13:38:02;6.07;;;2.95;;
22289;SDS011;11313;50.116;8.424;2023-10-09T13:40:35;6.15;;;3.40;;
22289;SDS011;11313;50.116;8.424;2023-10-09T13:43:02;8.82;;;3.20;;
22289;SDS011;11313;50.116;8.424;2023-10-09T13:45:28;10.90;;;4.55;;
22289;SDS011;11313;50.116;8.424;2023-10-09T13:47:54;11.40;;;4.95;;
22289;SDS011;11313;50.116;8.424;2023-10-09T13:50:23;9.23;;;4.43;;
22289;SDS011;11313;50.116;8.424;2023-10-09T13:52:53;12.85;;;5.13;;
22289;SDS011;11313;50.116;8.424;2023-10-09T13:55:19;11.32;;;4.60;;
22289;SDS011;11313;50.116;8.424;2023-10-09T13:57:45;10.15;;;4.80;;
22289;SDS011;11313;50.116;8.424;2023-10-09T14:00:14;11.75;;;4.45;;
22289;SDS011;11313;50.116;8.424;2023-10-09T14:02:43;8.65;;;4.85;;
22289;SDS011;11313;50.116;8.424;2023-10-09T14:05:11;9.73;;;5.20;;
22289;SDS011;11313;50.116;8.424;2023-10-09T14:07:46;11.52;;;5.40;;
22289;SDS011;11313;50.116;8.424;2023-10-09T14:10:11;11.98;;;5.00;;
22289;SDS011;11313;50.116;8.424;2023-10-09T14:29:10;11.05;;;5.20;;
22289;SDS011;11313;50.116;8.424;2023-10-09T14:38:23;12.85;;;5.82;;
22289;SDS011;11313;50.116;8.424;2023-10-09T14:40:52;17.20;;;5.63;;
22289;SDS011;11313;50.116;8.424;2023-10-09T14:43:24;10.10;;;3.90;;
22289;SDS011;11313;50.116;8.424;2023-10-09T14:45:53;12.02;;;5.25;;
22289;SDS011;11313;50.116;8.424;2023-10-09T14:48:20;11.20;;;5.13;;
22289;SDS011;11313;50.116;8.424;2023-10-09T14:50:52;11.75;;;4.90;;
22289;SDS011;11313;50.116;8.424;2023-10-09T14:53:18;11.13;;;4.88;;
22289;SDS011;11313;50.116;8.424;2023-10-09T14:55:45;10.95;;;4.97;;
22289;SDS011;11313;50.116;8.424;2023-10-09T14:58:12;10.18;;;5.22;;
22289;SDS011;11313;50.116;8.424;2023-10-09T15:00:38;12.75;;;4.95;;
22289;SDS011;11313;50.116;8.424;2023-10-09T15:03:11;11.98;;;5.28;;
22289;SDS011;11313;50.116;8.424;2023-10-09T15:05:39;9.75;;;5.30;;
22289;SDS011;11313;50.116;8.424;2023-10-09T15:08:08;10.73;;;5.28;;
22289;SDS011;11313;50.116;8.424;2023-10-09T15:10:57;12.13;;;6.22;;
22289;SDS011;11313;50.116;8.424;2023-10-09T15:13:22;11.40;;;5.45;;
22289;SDS011;11313;50.116;8.424;2023-10-09T15:15:54;13.57;;;5.32;;
22289;SDS011;11313;50.116;8.424;2023-10-09T15:18:20;14.07;;;5.93;;
22289;SDS011;11313;50.116;8.424;2023-10-09T15:20:46;11.02;;;5.68;;
22289;SDS011;11313;50.116;8.424;2023-10-09T15:23:12;11.63;;;5.78;;
22289;SDS011;11313;50.116;8.424;2023-10-09T15:25:38;13.20;;;5.55;;
22289;SDS011;11313;50.116;8.424;2023-10-09T15:28:04;11.18;;;5.50;;
22289;SDS011;11313;50.116;8.424;2023-10-09T15:30:32;9.98;;;5.63;;
22289;SDS011;11313;50.116;8.424;2023-10-09T15:32:58;17.60;;;7.85;;
22289;SDS011;11313;50.116;8.424;2023-10-09T15:35:24;23.90;;;12.43;;
22289;SDS011;11313;50.116;8.424;2023-10-09T15:37:53;14.82;;;8.98;;
22289;SDS011;11313;50.116;8.424;2023-10-09T15:40:19;14.55;;;7.57;;
22289;SDS011;11313;50.116;8.424;2023-10-09T15:42:49;14.40;;;6.57;;
22289;SDS011;11313;50.116;8.424;2023-10-09T15:45:17;11.30;;;5.88;;
22289;SDS011;11313;50.116;8.424;2023-10-09T15:47:46;14.18;;;5.68;;
22289;SDS011;11313;50.116;8.424;2023-10-09T15:50:12;14.30;;;5.55;;
22289;SDS011;11313;50.116;8.424;2023-10-09T15:52:39;9.82;;;4.60;;
22289;SDS011;11313;50.116;8.424;2023-10-09T15:55:06;11.40;;;5.40;;
22289;SDS011;11313;50.116;8.424;2023-10-09T15:57:45;12.05;;;5.20;;
22289;SDS011;11313;50.116;8.424;2023-10-09T16:00:11;11.60;;;5.25;;
22289;SDS011;11313;50.116;8.424;2023-10-09T16:02:42;11.25;;;5.07;;
22289;SDS011;11313;50.116;8.424;2023-10-09T16:05:09;12.05;;;5.57;;
22289;SDS011;11313;50.116;8.424;2023-10-09T16:07:36;10.05;;;5.60;;
22289;SDS011;11313;50.116;8.424;2023-10-09T16:10:03;16.13;;;5.95;;
22289;SDS011;11313;50.116;8.424;2023-10-09T16:12:34;10.27;;;5.90;;
22289;SDS011;11313;50.116;8.424;2023-10-09T16:15:01;11.68;;;5.80;;
22289;SDS011;11313;50.116;8.424;2023-10-09T16:17:29;12.18;;;5.80;;
22289;SDS011;11313;50.116;8.424;2023-10-09T16:19:54;11.77;;;5.90;;
22289;SDS011;11313;50.116;8.424;2023-10-09T16:22:20;13.18;;;6.15;;
22289;SDS011;11313;50.116;8.424;2023-10-09T16:24:48;11.73;;;5.70;;
22289;SDS011;11313;50.116;8.424;2023-10-09T16:27:15;11.10;;;5.93;;
22289;SDS011;11313;50.116;8.424;2023-10-09T16:29:40;12.10;;;6.00;;
22289;SDS011;11313;50.116;8.424;2023-10-09T16:32:09;12.60;;;5.90;;
22289;SDS011;11313;50.116;8.424;2023-10-09T16:34:36;15.40;;;6.40;;
22289;SDS011;11313;50.116;8.424;2023-10-09T16:37:03;12.88;;;6.55;;
22289;SDS011;11313;50.116;8.424;2023-10-09T16:39:31;12.70;;;6.60;;
22289;SDS011;11313;50.116;8.424;2023-10-09T16:42:03;12.43;;;5.95;;
22289;SDS011;11313;50.116;8.424;2023-10-09T16:44:29;13.38;;;6.25;;
22289;SDS011;11313;50.116;8.424;2023-10-09T16:46:56;13.52;;;6.07;;
22289;SDS011;11313;50.116;8.424;2023-10-09T16:49:23;13.10;;;6.38;;
22289;SDS011;11313;50.116;8.424;2023-10-09T16:51:50;13.10;;;6.35;;
22289;SDS011;11313;50.116;8.424;2023-10-09T16:54:16;13.15;;;6.28;;
22289;SDS011;11313;50.116;8.424;2023-10-09T16:56:42;12.93;;;5.85;;
22289;SDS011;11313;50.116;8.424;2023-10-09T16:59:09;11.63;;;6.03;;
22289;SDS011;11313;50.116;8.424;2023-10-09T17:04:09;14.38;;;6.47;;
22289;SDS011;11313;50.116;8.424;2023-10-09T17:06:41;10.27;;;5.93;;
22289;SDS011;11313;50.116;8.424;2023-10-09T17:09:11;14.15;;;6.43;;
22289;SDS011;11313;50.116;8.424;2023-10-09T17:11:40;13.13;;;6.00;;
22289;SDS011;11313;50.116;8.424;2023-10-09T17:14:06;15.88;;;6.57;;
22289;SDS011;11313;50.116;8.424;2023-10-09T17:16:32;13.95;;;6.07;;
22289;SDS011;11313;50.116;8.424;2023-10-09T17:18:58;12.02;;;5.78;;
22289;SDS011;11313;50.116;8.424;2023-10-09T17:21:28;15.00;;;6.65;;
22289;SDS011;11313;50.116;8.424;2023-10-09T17:24:01;14.95;;;6.45;;
22289;SDS011;11313;50.116;8.424;2023-10-09T17:26:26;16.38;;;6.55;;
22289;SDS011;11313;50.116;8.424;2023-10-09T17:28:52;14.93;;;6.82;;
22289;SDS011;11313;50.116;8.424;2023-10-09T17:31:18;16.27;;;7.10;;
22289;SDS011;11313;50.116;8.424;2023-10-09T17:33:46;13.13;;;7.60;;
22289;SDS011;11313;50.116;8.424;2023-10-09T17:36:12;17.42;;;7.63;;
22289;SDS011;11313;50.116;8.424;2023-10-09T17:38:41;17.85;;;7.20;;
22289;SDS011;11313;50.116;8.424;2023-10-09T17:41:17;19.13;;;7.38;;
22289;SDS011;11313;50.116;8.424;2023-10-09T17:43:43;13.98;;;6.75;;
22289;SDS011;11313;50.116;8.424;2023-10-09T17:46:09;16.65;;;6.93;;
22289;SDS011;11313;50.116;8.424;2023-10-09T17:48:36;16.70;;;7.45;;
22289;SDS011;11313;50.116;8.424;2023-10-09T17:51:03;17.65;;;7.90;;
22289;SDS011;11313;50.116;8.424;2023-10-09T17:56:06;21.42;;;11.55;;
22289;SDS011;11313;50.116;8.424;2023-10-09T17:58:33;15.00;;;8.48;;
22289;SDS011;11313;50.116;8.424;2023-10-09T18:00:59;15.10;;;7.80;;
22289;SDS011;11313;50.116;8.424;2023-10-09T18:03:29;17.42;;;6.68;;
22289;SDS011;11313;50.116;8.424;2023-10-09T18:05:56;15.60;;;7.35;;
22289;SDS011;11313;50.116;8.424;2023-10-09T18:08:21;18.58;;;7.38;;
22289;SDS011;11313;50.116;8.424;2023-10-09T18:10:53;16.90;;;7.28;;
22289;SDS011;11313;50.116;8.424;2023-10-09T18:13:24;18.15;;;8.40;;
22289;SDS011;11313;50.116;8.424;2023-10-09T18:15:50;19.88;;;8.82;;
22289;SDS011;11313;50.116;8.424;2023-10-09T18:18:26;16.75;;;8.10;;
22289;SDS011;11313;50.116;8.424;2023-10-09T18:20:51;16.20;;;7.53;;
22289;SDS011;11313;50.116;8.424;2023-10-09T18:23:18;15.55;;;7.68;;
22289;SDS011;11313;50.116;8.424;2023-10-09T18:25:44;16.17;;;7.72;;
22289;SDS011;11313;50.116;8.424;2023-10-09T18:28:10;15.18;;;6.95;;
22289;SDS011;11313;50.116;8.424;2023-10-09T18:30:36;16.52;;;7.18;;
22289;SDS011;11313;50.116;8.424;2023-10-09T18:33:04;12.88;;;6.88;;
22289;SDS011;11313;50.116;8.424;2023-10-09T18:35:29;15.23;;;6.50;;
22289;SDS011;11313;50.116;8.424;2023-10-09T18:37:56;12.15;;;6.40;;
22289;SDS011;11313;50.116;8.424;2023-10-09T18:40:26;13.43;;;6.55;;
22289;SDS011;11313;50.116;8.424;2023-10-09T18:42:56;14.88;;;6.82;;
22289;SDS011;11313;50.116;8.424;2023-10-09T18:45:23;14.82;;;6.75;;
22289;SDS011;11313;50.116;8.424;2023-10-09T18:47:50;10.90;;;6.63;;
22289;SDS011;11313;50.116;8.424;2023-10-09T18:50:16;13.15;;;6.40;;
22289;SDS011;11313;50.116;8.424;2023-10-09T18:52:42;12.05;;;6.53;;
22289;SDS011;11313;50.116;8.424;2023-10-09T18:55:08;13.82;;;6.75;;
22289;SDS011;11313;50.116;8.424;2023-10-09T18:57:36;13.35;;;5.88;;
22289;SDS011;11313;50.116;8.424;2023-10-09T19:00:02;13.55;;;6.70;;
22289;SDS011;11313;50.116;8.424;2023-10-09T19:02:32;13.02;;;6.50;;
22289;SDS011;11313;50.116;8.424;2023-10-09T19:04:58;16.38;;;7.03;;
22289;SDS011;11313;50.116;8.424;2023-10-09T19:07:23;10.88;;;6.53;;
22289;SDS011;11313;50.116;8.424;2023-10-09T19:09:53;17.25;;;6.80;;
22289;SDS011;11313;50.116;8.424;2023-10-09T19:12:20;12.43;;;7.30;;
22289;SDS011;11313;50.116;8.424;2023-10-09T19:14:45;12.73;;;6.38;;
22289;SDS011;11313;50.116;8.424;2023-10-09T19:17:12;12.57;;;6.20;;
22289;SDS011;11313;50.116;8.424;2023-10-09T19:19:38;13.80;;;6.38;;
22289;SDS011;11313;50.116;8.424;2023-10-09T19:22:04;11.40;;;6.20;;
22289;SDS011;11313;50.116;8.424;2023-10-09T19:24:30;11.55;;;6.10;;
22289;SDS011;11313;50.116;8.424;2023-10-09T19:26:55;12.30;;;5.88;;
22289;SDS011;11313;50.116;8.424;2023-10-09T19:29:21;12.05;;;6.15;;
22289;SDS011;11313;50.116;8.424;2023-10-09T19:31:46;12.13;;;5.90;;
22289;SDS011;11313;50.116;8.424;2023-10-09T19:34:14;12.60;;;6.38;;
22289;SDS011;11313;50.116;8.424;2023-10-09T19:36:40;12.52;;;5.93;;
22289;SDS011;11313;50.116;8.424;2023-10-09T19:39:07;10.50;;;5.72;;
22289;SDS011;11313;50.116;8.424;2023-10-09T19:41:33;14.02;;;6.07;;
22289;SDS011;11313;50.116;8.424;2023-10-09T19:44:00;10.15;;;6.10;;
22289;SDS011;11313;50.116;8.424;2023-10-09T19:46:29;13.27;;;6.53;;
22289;SDS011;11313;50.116;8.424;2023-10-09T19:48:55;9.13;;;5.60;;
22289;SDS011;11313;50.116;8.424;2023-10-09T19:51:20;9.77;;;6.30;;
22289;SDS011;11313;50.116;8.424;2023-10-09T19:53:48;10.70;;;5.75;;
22289;SDS011;11313;50.116;8.424;2023-10-09T19:56:17;12.40;;;5.90;;
22289;SDS011;11313;50.116;8.424;2023-10-09T19:58:43;11.35;;;5.93;;
22289;SDS011;11313;50.116;8.424;2023-10-09T20:01:11;12.45;;;6.22;;
22289;SDS011;11313;50.116;8.424;2023-10-09T20:03:37;11.60;;;6.03;;
22289;SDS011;11313;50.116;8.424;2023-10-09T20:06:04;9.77;;;6.15;;
22289;SDS011;11313;50.116;8.424;2023-10-09T20:08:31;10.63;;;5.95;;
22289;SDS011;11313;50.116;8.424;2023-10-09T20:11:03;10.93;;;6.00;;
22289;SDS011;11313;50.116;8.424;2023-10-09T20:13:31;10.85;;;6.30;;
22289;SDS011;11313;50.116;8.424;2023-10-09T20:15:58;11.45;;;5.63;;
22289;SDS011;11313;50.116;8.424;2023-10-09T20:18:24;13.20;;;6.47;;
22289;SDS011;11313;50.116;8.424;2023-10-09T20:20:50;9.82;;;5.97;;
22289;SDS011;11313;50.116;8.424;2023-10-09T20:23:16;10.00;;;6.30;;
22289;SDS011;11313;50.116;8.424;2023-10-09T20:25:41;10.50;;;6.20;;
22289;SDS011;11313;50.116;8.424;2023-10-09T20:28:07;12.07;;;6.63;;
22289;SDS011;11313;50.116;8.424;2023-10-09T20:30:35;14.55;;;5.85;;
22289;SDS011;11313;50.116;8.424;2023-10-09T20:33:01;11.27;;;6.40;;
22289;SDS011;11313;50.116;8.424;2023-10-09T20:35:27;10.73;;;6.07;;
22289;SDS011;11313;50.116;8.424;2023-10-09T20:37:53;11.88;;;5.75;;
22289;SDS011;11313;50.116;8.424;2023-10-09T20:40:20;16.20;;;6.35;;
22289;SDS011;11313;50.116;8.424;2023-10-09T20:42:50;10.13;;;6.35;;
22289;SDS011;11313;50.116;8.424;2023-10-09T20:45:16;13.45;;;6.55;;
22289;SDS011;11313;50.116;8.424;2023-10-09T20:47:43;11.75;;;6.32;;